Terminal Aerodrome Forecast
Issued by NWS

Home | Current Version | Previous Version | Text Only | Print | Product List | Glossary On
Versions: 1 2 3 4 5 6 7 8 9 10 11 12 13 14 15 16 17
000
FTUS41 KCAR 261135
TAFPQI
TAF
KPQI 261135Z 2612/2712 30008KT P6SM SKC
     FM261800 33005KT P6SM FEW050 SCT200
     FM262000 02004KT P6SM BKN200
     FM270800 03009KT P6SM BKN040 OVC080
      AMD LTD TO CLD VIS AND WIND=

USA.gov is the U.S. government's official web portal to all federal, state and local government web resources and services.